sensor_id;sensor_type;location;lat;lon;timestamp;P1;durP1;ratioP1;P2;durP2;ratioP2
9783;SDS011;4931;44.874;-1.092;2022-10-26T00:00:15;18.35;;;3.03;;
9783;SDS011;4931;44.874;-1.092;2022-10-26T00:05:00;15.10;;;3.20;;
9783;SDS011;4931;44.874;-1.092;2022-10-26T00:09:45;19.00;;;2.95;;
9783;SDS011;4931;44.874;-1.092;2022-10-26T00:14:31;15.00;;;2.80;;
9783;SDS011;4931;44.874;-1.092;2022-10-26T00:19:19;15.07;;;2.95;;
9783;SDS011;4931;44.874;-1.092;2022-10-26T00:24:04;14.73;;;3.05;;
9783;SDS011;4931;44.874;-1.092;2022-10-26T00:28:51;16.30;;;3.25;;
9783;SDS011;4931;44.874;-1.092;2022-10-26T00:33:38;11.82;;;3.00;;
9783;SDS011;4931;44.874;-1.092;2022-10-26T00:38:26;14.05;;;2.90;;
9783;SDS011;4931;44.874;-1.092;2022-10-26T00:43:15;13.93;;;2.95;;
9783;SDS011;4931;44.874;-1.092;2022-10-26T00:48:18;13.85;;;2.67;;
9783;SDS011;4931;44.874;-1.092;2022-10-26T00:53:08;9.50;;;2.50;;
9783;SDS011;4931;44.874;-1.092;2022-10-26T00:57:58;10.57;;;2.75;;
9783;SDS011;4931;44.874;-1.092;2022-10-26T01:02:46;10.32;;;3.13;;
9783;SDS011;4931;44.874;-1.092;2022-10-26T01:07:34;13.48;;;2.72;;
9783;SDS011;4931;44.874;-1.092;2022-10-26T01:12:20;11.88;;;3.10;;
9783;SDS011;4931;44.874;-1.092;2022-10-26T01:17:10;11.55;;;2.80;;
9783;SDS011;4931;44.874;-1.092;2022-10-26T01:22:16;18.83;;;3.15;;
9783;SDS011;4931;44.874;-1.092;2022-10-26T01:27:05;16.92;;;3.33;;
9783;SDS011;4931;44.874;-1.092;2022-10-26T01:32:06;21.85;;;3.30;;
9783;SDS011;4931;44.874;-1.092;2022-10-26T01:36:56;16.17;;;3.58;;
9783;SDS011;4931;44.874;-1.092;2022-10-26T01:41:50;17.08;;;3.45;;
9783;SDS011;4931;44.874;-1.092;2022-10-26T01:46:40;16.45;;;3.05;;
9783;SDS011;4931;44.874;-1.092;2022-10-26T01:51:30;20.65;;;3.17;;
9783;SDS011;4931;44.874;-1.092;2022-10-26T01:56:17;15.90;;;3.20;;
9783;SDS011;4931;44.874;-1.092;2022-10-26T02:01:07;18.15;;;3.58;;
9783;SDS011;4931;44.874;-1.092;2022-10-26T02:06:05;12.88;;;3.00;;
9783;SDS011;4931;44.874;-1.092;2022-10-26T02:11:04;13.07;;;2.60;;
9783;SDS011;4931;44.874;-1.092;2022-10-26T02:15:57;17.02;;;3.35;;
9783;SDS011;4931;44.874;-1.092;2022-10-26T02:20:49;14.93;;;2.80;;
9783;SDS011;4931;44.874;-1.092;2022-10-26T02:25:40;13.25;;;3.08;;
9783;SDS011;4931;44.874;-1.092;2022-10-26T02:35:21;14.10;;;3.00;;
9783;SDS011;4931;44.874;-1.092;2022-10-26T02:40:10;14.77;;;3.45;;
9783;SDS011;4931;44.874;-1.092;2022-10-26T02:44:59;15.82;;;3.67;;
9783;SDS011;4931;44.874;-1.092;2022-10-26T02:49:51;15.02;;;3.45;;
9783;SDS011;4931;44.874;-1.092;2022-10-26T02:54:39;11.68;;;2.83;;
9783;SDS011;4931;44.874;-1.092;2022-10-26T02:59:33;15.02;;;2.88;;
9783;SDS011;4931;44.874;-1.092;2022-10-26T03:04:20;15.90;;;3.05;;
9783;SDS011;4931;44.874;-1.092;2022-10-26T03:14:01;13.02;;;2.83;;
9783;SDS011;4931;44.874;-1.092;2022-10-26T03:18:47;12.32;;;2.88;;
9783;SDS011;4931;44.874;-1.092;2022-10-26T03:23:32;12.63;;;2.60;;
9783;SDS011;4931;44.874;-1.092;2022-10-26T03:28:20;17.40;;;3.50;;
9783;SDS011;4931;44.874;-1.092;2022-10-26T03:33:05;15.00;;;3.03;;
9783;SDS011;4931;44.874;-1.092;2022-10-26T03:37:50;11.02;;;2.95;;
9783;SDS011;4931;44.874;-1.092;2022-10-26T03:42:35;13.43;;;3.22;;
9783;SDS011;4931;44.874;-1.092;2022-10-26T03:47:23;9.95;;;2.80;;
9783;SDS011;4931;44.874;-1.092;2022-10-26T03:52:08;13.25;;;2.97;;
9783;SDS011;4931;44.874;-1.092;2022-10-26T03:56:53;12.07;;;2.85;;
9783;SDS011;4931;44.874;-1.092;2022-10-26T04:01:39;14.35;;;2.88;;
9783;SDS011;4931;44.874;-1.092;2022-10-26T04:06:26;10.63;;;2.42;;
9783;SDS011;4931;44.874;-1.092;2022-10-26T04:11:12;13.60;;;2.53;;
9783;SDS011;4931;44.874;-1.092;2022-10-26T04:15:57;13.15;;;2.58;;
9783;SDS011;4931;44.874;-1.092;2022-10-26T04:20:42;10.35;;;2.38;;
9783;SDS011;4931;44.874;-1.092;2022-10-26T04:25:30;7.55;;;2.20;;
9783;SDS011;4931;44.874;-1.092;2022-10-26T04:30:17;13.40;;;2.75;;
9783;SDS011;4931;44.874;-1.092;2022-10-26T04:35:02;11.00;;;2.35;;
9783;SDS011;4931;44.874;-1.092;2022-10-26T04:39:47;9.43;;;3.28;;
9783;SDS011;4931;44.874;-1.092;2022-10-26T04:44:35;11.00;;;2.58;;
9783;SDS011;4931;44.874;-1.092;2022-10-26T04:49:20;8.20;;;1.80;;
9783;SDS011;4931;44.874;-1.092;2022-10-26T04:54:05;8.75;;;2.13;;
9783;SDS011;4931;44.874;-1.092;2022-10-26T04:58:52;13.07;;;2.22;;
9783;SDS011;4931;44.874;-1.092;2022-10-26T05:03:40;11.35;;;2.65;;
9783;SDS011;4931;44.874;-1.092;2022-10-26T05:08:26;13.10;;;2.50;;
9783;SDS011;4931;44.874;-1.092;2022-10-26T05:13:12;13.38;;;3.33;;
9783;SDS011;4931;44.874;-1.092;2022-10-26T05:17:58;8.68;;;2.40;;
9783;SDS011;4931;44.874;-1.092;2022-10-26T05:22:46;12.48;;;2.35;;
9783;SDS011;4931;44.874;-1.092;2022-10-26T05:27:36;10.13;;;2.35;;
9783;SDS011;4931;44.874;-1.092;2022-10-26T05:32:21;11.25;;;2.75;;
9783;SDS011;4931;44.874;-1.092;2022-10-26T05:37:06;8.23;;;1.92;;
9783;SDS011;4931;44.874;-1.092;2022-10-26T05:41:54;7.15;;;2.05;;
9783;SDS011;4931;44.874;-1.092;2022-10-26T05:46:39;10.57;;;2.17;;
9783;SDS011;4931;44.874;-1.092;2022-10-26T05:51:24;16.15;;;2.63;;
9783;SDS011;4931;44.874;-1.092;2022-10-26T05:56:12;16.40;;;2.58;;
9783;SDS011;4931;44.874;-1.092;2022-10-26T06:01:08;11.20;;;2.40;;
9783;SDS011;4931;44.874;-1.092;2022-10-26T06:06:03;15.52;;;3.05;;
9783;SDS011;4931;44.874;-1.092;2022-10-26T06:10:51;14.73;;;2.72;;
9783;SDS011;4931;44.874;-1.092;2022-10-26T06:15:41;14.35;;;2.88;;
9783;SDS011;4931;44.874;-1.092;2022-10-26T06:20:45;10.00;;;2.50;;
9783;SDS011;4931;44.874;-1.092;2022-10-26T06:25:43;5.45;;;2.30;;
9783;SDS011;4931;44.874;-1.092;2022-10-26T06:30:38;9.82;;;1.90;;
9783;SDS011;4931;44.874;-1.092;2022-10-26T06:35:26;14.02;;;2.63;;
9783;SDS011;4931;44.874;-1.092;2022-10-26T06:40:23;10.18;;;2.53;;
9783;SDS011;4931;44.874;-1.092;2022-10-26T06:45:11;8.98;;;2.90;;
9783;SDS011;4931;44.874;-1.092;2022-10-26T06:49:59;10.73;;;2.55;;
9783;SDS011;4931;44.874;-1.092;2022-10-26T06:54:54;7.85;;;2.10;;
9783;SDS011;4931;44.874;-1.092;2022-10-26T06:59:43;9.68;;;2.50;;
9783;SDS011;4931;44.874;-1.092;2022-10-26T07:09:16;10.63;;;2.88;;
9783;SDS011;4931;44.874;-1.092;2022-10-26T07:14:01;10.73;;;2.55;;
9783;SDS011;4931;44.874;-1.092;2022-10-26T07:18:49;6.78;;;2.80;;
9783;SDS011;4931;44.874;-1.092;2022-10-26T07:23:34;16.50;;;2.75;;
9783;SDS011;4931;44.874;-1.092;2022-10-26T07:28:19;7.50;;;2.45;;
9783;SDS011;4931;44.874;-1.092;2022-10-26T07:33:06;12.05;;;2.90;;
9783;SDS011;4931;44.874;-1.092;2022-10-26T07:37:58;11.38;;;2.85;;
9783;SDS011;4931;44.874;-1.092;2022-10-26T07:47:30;10.55;;;2.50;;
9783;SDS011;4931;44.874;-1.092;2022-10-26T07:52:15;9.43;;;2.50;;
9783;SDS011;4931;44.874;-1.092;2022-10-26T07:57:03;9.43;;;2.30;;
9783;SDS011;4931;44.874;-1.092;2022-10-26T08:01:48;8.60;;;2.22;;
9783;SDS011;4931;44.874;-1.092;2022-10-26T08:06:33;9.43;;;2.15;;
9783;SDS011;4931;44.874;-1.092;2022-10-26T08:11:18;7.60;;;2.15;;
9783;SDS011;4931;44.874;-1.092;2022-10-26T08:16:07;12.50;;;2.58;;
9783;SDS011;4931;44.874;-1.092;2022-10-26T08:20:52;5.88;;;2.05;;
9783;SDS011;4931;44.874;-1.092;2022-10-26T08:25:50;6.85;;;1.70;;
9783;SDS011;4931;44.874;-1.092;2022-10-26T08:30:35;7.53;;;2.35;;
9783;SDS011;4931;44.874;-1.092;2022-10-26T08:35:23;10.52;;;2.47;;
9783;SDS011;4931;44.874;-1.092;2022-10-26T08:40:10;6.40;;;2.17;;
9783;SDS011;4931;44.874;-1.092;2022-10-26T08:45:00;9.37;;;2.13;;
9783;SDS011;4931;44.874;-1.092;2022-10-26T08:49:49;10.00;;;2.00;;
9783;SDS011;4931;44.874;-1.092;2022-10-26T08:54:42;6.57;;;2.58;;
9783;SDS011;4931;44.874;-1.092;2022-10-26T08:59:33;6.75;;;2.17;;
9783;SDS011;4931;44.874;-1.092;2022-10-26T09:04:24;8.15;;;2.10;;
9783;SDS011;4931;44.874;-1.092;2022-10-26T09:09:12;8.00;;;2.13;;
9783;SDS011;4931;44.874;-1.092;2022-10-26T09:14:06;11.00;;;2.17;;
9783;SDS011;4931;44.874;-1.092;2022-10-26T09:19:14;13.43;;;2.28;;
9783;SDS011;4931;44.874;-1.092;2022-10-26T09:24:12;5.90;;;1.85;;
9783;SDS011;4931;44.874;-1.092;2022-10-26T09:29:00;5.28;;;1.80;;
9783;SDS011;4931;44.874;-1.092;2022-10-26T09:33:50;9.10;;;2.30;;
9783;SDS011;4931;44.874;-1.092;2022-10-26T09:38:38;12.95;;;1.98;;
9783;SDS011;4931;44.874;-1.092;2022-10-26T09:43:27;13.15;;;2.45;;
9783;SDS011;4931;44.874;-1.092;2022-10-26T09:48:20;9.10;;;1.95;;
9783;SDS011;4931;44.874;-1.092;2022-10-26T09:53:11;9.68;;;2.08;;
9783;SDS011;4931;44.874;-1.092;2022-10-26T09:57:57;6.50;;;1.77;;
9783;SDS011;4931;44.874;-1.092;2022-10-26T10:02:47;10.15;;;2.13;;
9783;SDS011;4931;44.874;-1.092;2022-10-26T10:07:37;6.70;;;2.40;;
9783;SDS011;4931;44.874;-1.092;2022-10-26T10:12:22;9.63;;;1.83;;
9783;SDS011;4931;44.874;-1.092;2022-10-26T10:17:18;9.63;;;1.73;;
9783;SDS011;4931;44.874;-1.092;2022-10-26T10:22:07;7.28;;;2.20;;
9783;SDS011;4931;44.874;-1.092;2022-10-26T10:26:59;9.93;;;2.60;;
9783;SDS011;4931;44.874;-1.092;2022-10-26T10:31:46;5.67;;;2.10;;
9783;SDS011;4931;44.874;-1.092;2022-10-26T10:36:39;6.03;;;1.90;;
9783;SDS011;4931;44.874;-1.092;2022-10-26T10:41:25;8.27;;;2.15;;
9783;SDS011;4931;44.874;-1.092;2022-10-26T10:46:19;8.27;;;2.00;;
9783;SDS011;4931;44.874;-1.092;2022-10-26T10:51:06;10.30;;;2.40;;
9783;SDS011;4931;44.874;-1.092;2022-10-26T11:01:07;8.13;;;2.35;;
9783;SDS011;4931;44.874;-1.092;2022-10-26T11:06:02;10.20;;;2.10;;
9783;SDS011;4931;44.874;-1.092;2022-10-26T11:10:59;6.45;;;2.00;;
9783;SDS011;4931;44.874;-1.092;2022-10-26T11:15:46;6.80;;;2.25;;
9783;SDS011;4931;44.874;-1.092;2022-10-26T11:20:37;5.72;;;1.80;;
9783;SDS011;4931;44.874;-1.092;2022-10-26T11:25:29;6.32;;;1.90;;
9783;SDS011;4931;44.874;-1.092;2022-10-26T11:30:20;8.73;;;2.13;;
9783;SDS011;4931;44.874;-1.092;2022-10-26T11:35:10;7.00;;;2.15;;
9783;SDS011;4931;44.874;-1.092;2022-10-26T11:40:02;7.43;;;1.55;;
9783;SDS011;4931;44.874;-1.092;2022-10-26T11:44:58;5.72;;;2.00;;
9783;SDS011;4931;44.874;-1.092;2022-10-26T11:49:49;6.53;;;1.70;;
9783;SDS011;4931;44.874;-1.092;2022-10-26T11:54:41;10.57;;;2.78;;
9783;SDS011;4931;44.874;-1.092;2022-10-26T11:59:34;8.60;;;2.17;;
9783;SDS011;4931;44.874;-1.092;2022-10-26T12:04:28;6.43;;;2.10;;
9783;SDS011;4931;44.874;-1.092;2022-10-26T12:09:17;9.02;;;2.08;;
9783;SDS011;4931;44.874;-1.092;2022-10-26T12:14:07;7.72;;;2.13;;
9783;SDS011;4931;44.874;-1.092;2022-10-26T12:19:03;13.10;;;2.45;;
9783;SDS011;4931;44.874;-1.092;2022-10-26T12:23:56;9.02;;;2.85;;
9783;SDS011;4931;44.874;-1.092;2022-10-26T12:28:42;7.70;;;2.33;;
9783;SDS011;4931;44.874;-1.092;2022-10-26T12:33:47;7.50;;;2.17;;
9783;SDS011;4931;44.874;-1.092;2022-10-26T12:43:45;10.38;;;2.33;;
9783;SDS011;4931;44.874;-1.092;2022-10-26T12:48:38;6.75;;;2.20;;
9783;SDS011;4931;44.874;-1.092;2022-10-26T12:53:24;9.48;;;2.75;;
9783;SDS011;4931;44.874;-1.092;2022-10-26T13:03:41;7.38;;;2.25;;
9783;SDS011;4931;44.874;-1.092;2022-10-26T13:08:38;7.57;;;2.53;;
9783;SDS011;4931;44.874;-1.092;2022-10-26T13:13:27;10.15;;;2.13;;
9783;SDS011;4931;44.874;-1.092;2022-10-26T13:18:15;9.23;;;2.40;;
9783;SDS011;4931;44.874;-1.092;2022-10-26T13:23:05;8.15;;;2.20;;
9783;SDS011;4931;44.874;-1.092;2022-10-26T13:28:01;6.93;;;2.10;;
9783;SDS011;4931;44.874;-1.092;2022-10-26T13:32:49;6.28;;;2.63;;
9783;SDS011;4931;44.874;-1.092;2022-10-26T13:37:38;12.32;;;1.90;;
9783;SDS011;4931;44.874;-1.092;2022-10-26T13:42:31;5.57;;;1.98;;
9783;SDS011;4931;44.874;-1.092;2022-10-26T13:47:23;10.55;;;2.33;;
9783;SDS011;4931;44.874;-1.092;2022-10-26T13:52:13;6.70;;;1.77;;
9783;SDS011;4931;44.874;-1.092;2022-10-26T13:57:10;6.20;;;1.80;;
9783;SDS011;4931;44.874;-1.092;2022-10-26T14:07:12;4.90;;;1.40;;
9783;SDS011;4931;44.874;-1.092;2022-10-26T14:12:01;5.05;;;1.10;;
9783;SDS011;4931;44.874;-1.092;2022-10-26T14:16:47;3.17;;;1.13;;
9783;SDS011;4931;44.874;-1.092;2022-10-26T14:21:38;2.47;;;1.10;;
9783;SDS011;4931;44.874;-1.092;2022-10-26T14:26:37;1.67;;;0.93;;
9783;SDS011;4931;44.874;-1.092;2022-10-26T14:31:24;2.45;;;0.93;;
9783;SDS011;4931;44.874;-1.092;2022-10-26T14:36:11;4.35;;;1.05;;
9783;SDS011;4931;44.874;-1.092;2022-10-26T14:41:00;7.28;;;1.23;;
9783;SDS011;4931;44.874;-1.092;2022-10-26T14:45:46;5.55;;;1.20;;
9783;SDS011;4931;44.874;-1.092;2022-10-26T14:50:32;4.43;;;0.95;;
9783;SDS011;4931;44.874;-1.092;2022-10-26T14:55:18;5.45;;;1.10;;
9783;SDS011;4931;44.874;-1.092;2022-10-26T15:00:10;4.35;;;1.20;;
9783;SDS011;4931;44.874;-1.092;2022-10-26T15:04:59;3.83;;;1.13;;
9783;SDS011;4931;44.874;-1.092;2022-10-26T15:09:47;3.92;;;1.17;;
9783;SDS011;4931;44.874;-1.092;2022-10-26T15:14:34;3.55;;;0.73;;
9783;SDS011;4931;44.874;-1.092;2022-10-26T15:19:22;3.17;;;1.20;;
9783;SDS011;4931;44.874;-1.092;2022-10-26T15:24:16;5.05;;;0.98;;
9783;SDS011;4931;44.874;-1.092;2022-10-26T15:34:24;4.22;;;1.13;;
9783;SDS011;4931;44.874;-1.092;2022-10-26T15:39:09;1.60;;;0.85;;
9783;SDS011;4931;44.874;-1.092;2022-10-26T15:43:55;3.75;;;0.90;;
9783;SDS011;4931;44.874;-1.092;2022-10-26T15:48:42;4.88;;;1.00;;
9783;SDS011;4931;44.874;-1.092;2022-10-26T15:53:34;4.03;;;0.98;;
9783;SDS011;4931;44.874;-1.092;2022-10-26T15:58:19;5.78;;;1.20;;
9783;SDS011;4931;44.874;-1.092;2022-10-26T16:03:05;3.03;;;0.88;;
9783;SDS011;4931;44.874;-1.092;2022-10-26T16:07:53;5.82;;;1.30;;
9783;SDS011;4931;44.874;-1.092;2022-10-26T16:12:42;4.78;;;1.00;;
9783;SDS011;4931;44.874;-1.092;2022-10-26T16:17:27;6.40;;;2.15;;
9783;SDS011;4931;44.874;-1.092;2022-10-26T16:22:13;4.88;;;1.30;;
9783;SDS011;4931;44.874;-1.092;2022-10-26T16:26:58;5.47;;;1.13;;
9783;SDS011;4931;44.874;-1.092;2022-10-26T16:31:46;3.13;;;1.20;;
9783;SDS011;4931;44.874;-1.092;2022-10-26T16:36:31;5.20;;;1.20;;
9783;SDS011;4931;44.874;-1.092;2022-10-26T16:41:19;5.72;;;1.23;;
9783;SDS011;4931;44.874;-1.092;2022-10-26T16:46:05;5.53;;;1.38;;
9783;SDS011;4931;44.874;-1.092;2022-10-26T16:50:54;2.55;;;1.25;;
9783;SDS011;4931;44.874;-1.092;2022-10-26T16:55:39;3.60;;;1.25;;
9783;SDS011;4931;44.874;-1.092;2022-10-26T17:00:25;4.63;;;1.23;;
9783;SDS011;4931;44.874;-1.092;2022-10-26T17:05:10;4.75;;;1.42;;
9783;SDS011;4931;44.874;-1.092;2022-10-26T17:09:58;5.30;;;1.48;;
9783;SDS011;4931;44.874;-1.092;2022-10-26T17:14:43;7.03;;;1.50;;
9783;SDS011;4931;44.874;-1.092;2022-10-26T17:19:29;3.90;;;1.40;;
9783;SDS011;4931;44.874;-1.092;2022-10-26T17:24:14;5.07;;;1.50;;
9783;SDS011;4931;44.874;-1.092;2022-10-26T17:29:02;10.88;;;1.30;;
9783;SDS011;4931;44.874;-1.092;2022-10-26T17:33:47;9.32;;;1.60;;
9783;SDS011;4931;44.874;-1.092;2022-10-26T17:38:33;8.27;;;2.70;;
9783;SDS011;4931;44.874;-1.092;2022-10-26T17:43:20;8.52;;;2.10;;
9783;SDS011;4931;44.874;-1.092;2022-10-26T17:48:08;9.63;;;3.17;;
9783;SDS011;4931;44.874;-1.092;2022-10-26T17:52:53;11.23;;;4.80;;
9783;SDS011;4931;44.874;-1.092;2022-10-26T17:57:38;33.05;;;12.68;;
9783;SDS011;4931;44.874;-1.092;2022-10-26T18:02:24;28.17;;;13.73;;
9783;SDS011;4931;44.874;-1.092;2022-10-26T18:07:13;31.20;;;14.02;;
9783;SDS011;4931;44.874;-1.092;2022-10-26T18:11:58;40.47;;;17.70;;
9783;SDS011;4931;44.874;-1.092;2022-10-26T18:16:43;13.23;;;6.05;;
9783;SDS011;4931;44.874;-1.092;2022-10-26T18:21:29;18.23;;;8.40;;
9783;SDS011;4931;44.874;-1.092;2022-10-26T18:26:21;15.95;;;8.15;;
9783;SDS011;4931;44.874;-1.092;2022-10-26T18:31:09;10.93;;;5.95;;
9783;SDS011;4931;44.874;-1.092;2022-10-26T18:35:59;15.65;;;3.47;;
9783;SDS011;4931;44.874;-1.092;2022-10-26T18:40:50;9.10;;;4.18;;
9783;SDS011;4931;44.874;-1.092;2022-10-26T18:45:38;5.13;;;2.63;;
9783;SDS011;4931;44.874;-1.092;2022-10-26T18:50:24;6.88;;;3.17;;
9783;SDS011;4931;44.874;-1.092;2022-10-26T18:55:10;20.77;;;10.82;;
9783;SDS011;4931;44.874;-1.092;2022-10-26T18:59:55;18.98;;;10.02;;
9783;SDS011;4931;44.874;-1.092;2022-10-26T19:04:43;14.27;;;8.85;;
9783;SDS011;4931;44.874;-1.092;2022-10-26T19:09:28;13.07;;;5.30;;
9783;SDS011;4931;44.874;-1.092;2022-10-26T19:14:13;7.55;;;3.33;;
9783;SDS011;4931;44.874;-1.092;2022-10-26T19:18:58;8.55;;;3.70;;
9783;SDS011;4931;44.874;-1.092;2022-10-26T19:23:47;8.82;;;2.60;;
9783;SDS011;4931;44.874;-1.092;2022-10-26T19:28:33;7.32;;;3.25;;
9783;SDS011;4931;44.874;-1.092;2022-10-26T19:33:19;5.53;;;2.70;;
9783;SDS011;4931;44.874;-1.092;2022-10-26T19:38:04;5.05;;;2.20;;
9783;SDS011;4931;44.874;-1.092;2022-10-26T19:42:52;6.93;;;1.90;;
9783;SDS011;4931;44.874;-1.092;2022-10-26T19:47:37;5.65;;;1.80;;
9783;SDS011;4931;44.874;-1.092;2022-10-26T19:52:22;10.18;;;1.88;;
9783;SDS011;4931;44.874;-1.092;2022-10-26T19:57:08;5.40;;;1.90;;
9783;SDS011;4931;44.874;-1.092;2022-10-26T20:01:55;5.28;;;1.85;;
9783;SDS011;4931;44.874;-1.092;2022-10-26T20:06:41;4.75;;;1.75;;
9783;SDS011;4931;44.874;-1.092;2022-10-26T20:11:26;5.03;;;2.30;;
9783;SDS011;4931;44.874;-1.092;2022-10-26T20:16:13;7.95;;;1.75;;
9783;SDS011;4931;44.874;-1.092;2022-10-26T20:21:03;7.00;;;2.20;;
9783;SDS011;4931;44.874;-1.092;2022-10-26T20:25:50;4.35;;;1.92;;
9783;SDS011;4931;44.874;-1.092;2022-10-26T20:30:36;5.20;;;1.80;;
9783;SDS011;4931;44.874;-1.092;2022-10-26T20:35:22;5.97;;;2.03;;
9783;SDS011;4931;44.874;-1.092;2022-10-26T20:40:11;4.82;;;1.80;;
9783;SDS011;4931;44.874;-1.092;2022-10-26T20:45:00;4.40;;;2.30;;
9783;SDS011;4931;44.874;-1.092;2022-10-26T20:49:50;5.60;;;2.33;;
9783;SDS011;4931;44.874;-1.092;2022-10-26T20:54:37;8.38;;;2.78;;
9783;SDS011;4931;44.874;-1.092;2022-10-26T20:59:32;4.95;;;2.53;;
9783;SDS011;4931;44.874;-1.092;2022-10-26T21:04:22;9.55;;;2.97;;
9783;SDS011;4931;44.874;-1.092;2022-10-26T21:09:07;8.63;;;3.10;;
9783;SDS011;4931;44.874;-1.092;2022-10-26T21:13:53;10.02;;;2.80;;
9783;SDS011;4931;44.874;-1.092;2022-10-26T21:18:41;10.52;;;3.50;;
9783;SDS011;4931;44.874;-1.092;2022-10-26T21:23:29;12.57;;;3.70;;
9783;SDS011;4931;44.874;-1.092;2022-10-26T21:28:15;9.07;;;3.50;;
9783;SDS011;4931;44.874;-1.092;2022-10-26T21:33:00;12.65;;;4.15;;
9783;SDS011;4931;44.874;-1.092;2022-10-26T21:37:48;12.15;;;3.80;;
9783;SDS011;4931;44.874;-1.092;2022-10-26T21:42:33;9.60;;;4.07;;
9783;SDS011;4931;44.874;-1.092;2022-10-26T21:47:19;12.93;;;4.35;;
9783;SDS011;4931;44.874;-1.092;2022-10-26T21:52:04;12.05;;;4.45;;
9783;SDS011;4931;44.874;-1.092;2022-10-26T21:56:53;14.00;;;5.07;;
9783;SDS011;4931;44.874;-1.092;2022-10-26T22:01:38;16.95;;;5.60;;
9783;SDS011;4931;44.874;-1.092;2022-10-26T22:06:23;16.02;;;5.28;;
9783;SDS011;4931;44.874;-1.092;2022-10-26T22:11:09;14.45;;;5.43;;
9783;SDS011;4931;44.874;-1.092;2022-10-26T22:16:03;19.73;;;6.45;;
9783;SDS011;4931;44.874;-1.092;2022-10-26T22:20:54;20.83;;;5.68;;
9783;SDS011;4931;44.874;-1.092;2022-10-26T22:25:42;19.95;;;5.90;;
9783;SDS011;4931;44.874;-1.092;2022-10-26T22:30:27;20.38;;;6.38;;
9783;SDS011;4931;44.874;-1.092;2022-10-26T22:35:15;20.70;;;6.80;;
9783;SDS011;4931;44.874;-1.092;2022-10-26T22:40:16;21.45;;;6.68;;
9783;SDS011;4931;44.874;-1.092;2022-10-26T22:45:01;22.65;;;7.18;;
9783;SDS011;4931;44.874;-1.092;2022-10-26T22:49:46;21.92;;;7.28;;
9783;SDS011;4931;44.874;-1.092;2022-10-26T22:54:34;24.40;;;7.88;;
9783;SDS011;4931;44.874;-1.092;2022-10-26T22:59:19;27.08;;;8.00;;
9783;SDS011;4931;44.874;-1.092;2022-10-26T23:04:04;24.67;;;7.22;;
9783;SDS011;4931;44.874;-1.092;2022-10-26T23:08:50;28.60;;;7.78;;
9783;SDS011;4931;44.874;-1.092;2022-10-26T23:13:38;24.52;;;7.68;;
9783;SDS011;4931;44.874;-1.092;2022-10-26T23:18:23;23.95;;;7.70;;
9783;SDS011;4931;44.874;-1.092;2022-10-26T23:23:08;25.08;;;8.35;;
9783;SDS011;4931;44.874;-1.092;2022-10-26T23:27:54;22.33;;;7.38;;
9783;SDS011;4931;44.874;-1.092;2022-10-26T23:32:41;20.90;;;7.80;;
9783;SDS011;4931;44.874;-1.092;2022-10-26T23:37:27;25.88;;;7.78;;
9783;SDS011;4931;44.874;-1.092;2022-10-26T23:42:12;23.27;;;7.38;;
9783;SDS011;4931;44.874;-1.092;2022-10-26T23:46:57;23.90;;;7.97;;
9783;SDS011;4931;44.874;-1.092;2022-10-26T23:51:45;23.00;;;8.00;;
9783;SDS011;4931;44.874;-1.092;2022-10-26T23:56:30;21.55;;;7.88;;
